createdAt,value
2023-04-19T00:04:48.037Z,78.90
2023-04-19T00:14:47.170Z,79.00
2023-04-19T00:24:45.986Z,79.20
2023-04-19T00:34:45.020Z,79.60
2023-04-19T00:44:44.095Z,80.00
2023-04-19T00:54:43.102Z,80.20
2023-04-19T01:04:42.283Z,80.20
2023-04-19T01:14:40.955Z,80.30
2023-04-19T01:24:40.077Z,80.60
2023-04-19T01:34:39.026Z,81.40
2023-04-19T01:44:37.897Z,81.90
2023-04-19T01:54:37.117Z,82.10
2023-04-19T02:04:38.930Z,82.80
2023-04-19T02:14:38.262Z,82.80
2023-04-19T02:24:37.428Z,83.90
2023-04-19T02:34:36.071Z,84.60
2023-04-19T02:44:35.109Z,85.70
2023-04-19T02:54:34.275Z,86.70
2023-04-19T03:04:34.701Z,88.10
2023-04-19T03:14:34.506Z,88.40
2023-04-19T03:24:37.564Z,88.90
2023-04-19T03:34:36.005Z,89.00
2023-04-19T03:44:37.229Z,89.10
2023-04-19T03:54:37.007Z,89.50
2023-04-19T04:04:36.270Z,89.70
2023-04-19T04:14:36.439Z,89.60
2023-04-19T04:24:38.877Z,89.50
2023-04-19T04:34:39.944Z,88.80
2023-04-19T04:44:42.870Z,87.80
2023-04-19T04:54:43.952Z,87.20
2023-04-19T05:04:44.073Z,86.00
2023-04-19T05:14:43.810Z,84.40
2023-04-19T05:24:43.822Z,83.60
2023-04-19T05:34:44.957Z,82.30
2023-04-19T05:44:44.581Z,81.40
2023-04-19T05:54:44.937Z,80.40
2023-04-19T06:04:45.283Z,78.90
2023-04-19T06:14:44.388Z,78.50
2023-04-19T06:24:43.324Z,77.30
2023-04-19T06:34:42.015Z,76.40
2023-04-19T06:44:41.119Z,75.00
2023-04-19T06:54:40.471Z,74.20
2023-04-19T07:04:39.421Z,73.80
2023-04-19T07:14:38.454Z,71.90
2023-04-19T07:24:39.270Z,70.20
2023-04-19T07:34:38.274Z,68.60
2023-04-19T07:44:37.075Z,67.50
2023-04-19T07:54:38.129Z,65.80
2023-04-19T08:04:37.634Z,65.40
2023-04-19T08:24:40.277Z,63.50
2023-04-19T08:34:39.123Z,61.60
2023-04-19T08:44:42.273Z,59.40
2023-04-19T08:54:39.386Z,58.90
2023-04-19T09:04:38.973Z,57.30
2023-04-19T09:14:38.992Z,57.40
2023-04-19T09:25:13.915Z,54.00
2023-04-19T09:34:40.253Z,54.20
2023-04-19T09:45:05.901Z,54.50
2023-04-19T09:54:40.198Z,54.00
2023-04-19T10:04:59.661Z,52.70
2023-04-19T10:14:40.224Z,52.20
2023-04-19T10:24:39.297Z,50.40
2023-04-19T10:34:38.359Z,48.80
2023-04-19T10:44:37.172Z,47.50
2023-04-19T10:54:37.310Z,43.00
2023-04-19T11:04:36.356Z,42.00
2023-04-19T11:14:35.240Z,39.00
2023-04-19T11:24:34.458Z,38.80
2023-04-19T11:34:33.605Z,38.50
2023-04-19T11:44:33.669Z,38.70
2023-04-19T11:54:32.412Z,38.80
2023-04-19T12:04:31.341Z,39.30
2023-04-19T12:14:31.122Z,39.10
2023-04-19T12:24:30.311Z,39.20
2023-04-19T12:34:29.227Z,39.10
2023-04-19T12:44:28.459Z,40.30
2023-04-19T12:54:27.380Z,37.80
2023-04-19T13:04:27.504Z,39.20
2023-04-19T13:14:26.455Z,38.40
2023-04-19T13:24:25.329Z,38.20
2023-04-19T13:34:24.738Z,38.50
2023-04-19T13:44:24.799Z,38.60
2023-04-19T13:54:23.365Z,38.80
2023-04-19T14:04:22.892Z,38.40
2023-04-19T14:14:22.439Z,37.80
2023-04-19T14:24:21.331Z,36.90
2023-04-19T14:34:20.301Z,36.10
2023-04-19T14:44:19.413Z,35.20
2023-04-19T14:54:18.372Z,36.40
2023-04-19T15:04:17.616Z,36.00
2023-04-19T15:14:19.669Z,36.50
2023-04-19T15:24:18.680Z,36.60
2023-04-19T15:34:17.542Z,36.00
2023-04-19T15:44:16.360Z,35.30
2023-04-19T15:54:15.947Z,36.30
2023-04-19T16:04:14.753Z,37.20
2023-04-19T16:14:13.487Z,37.80
2023-04-19T16:24:12.489Z,38.00
2023-04-19T16:34:11.533Z,36.90
2023-04-19T16:44:10.666Z,37.10
2023-04-19T16:54:09.625Z,36.00
2023-04-19T17:04:08.874Z,35.20
2023-04-19T17:14:07.498Z,34.00
2023-04-19T17:24:06.417Z,33.50
2023-04-19T17:34:05.540Z,34.90
2023-04-19T17:44:04.468Z,34.90
2023-04-19T17:54:03.450Z,34.10
2023-04-19T18:04:02.942Z,35.10
2023-04-19T18:14:01.461Z,36.40
2023-04-19T18:24:00.764Z,38.20
2023-04-19T18:33:59.538Z,39.30
2023-04-19T18:53:59.689Z,40.80
2023-04-19T19:04:24.031Z,41.40
2023-04-19T19:13:59.534Z,41.90
2023-04-19T19:23:59.058Z,42.50
2023-04-19T19:34:18.278Z,42.80
2023-04-19T19:43:58.818Z,43.20
2023-04-19T19:53:57.647Z,43.70
2023-04-19T20:03:56.962Z,44.20
2023-04-19T20:13:55.859Z,44.60
2023-04-19T20:23:54.771Z,45.10
2023-04-19T20:33:53.636Z,45.60
2023-04-19T20:43:52.648Z,46.20
2023-04-19T20:53:51.807Z,46.50
2023-04-19T21:03:50.943Z,47.00
2023-04-19T21:13:50.642Z,47.00
2023-04-19T21:23:49.669Z,47.30
2023-04-19T21:33:48.615Z,47.50
2023-04-19T21:43:47.791Z,47.60
2023-04-19T21:53:46.636Z,47.90
2023-04-19T22:03:46.555Z,48.30
2023-04-19T22:13:45.775Z,49.40
2023-04-19T22:23:44.774Z,49.80
2023-04-19T22:33:43.876Z,50.00
2023-04-19T22:43:42.880Z,49.90
2023-04-19T22:53:41.967Z,50.00
2023-04-19T23:03:40.779Z,49.90
2023-04-19T23:13:40.975Z,49.90
2023-04-19T23:23:39.871Z,50.80
2023-04-19T23:33:38.816Z,50.70
2023-04-19T23:43:37.837Z,50.70
2023-04-19T23:53:38.247Z,50.50
